createdAt,value
2022-10-03T00:00:41.686Z,101449.44
2022-10-03T00:04:58.879Z,101452.09
2022-10-03T00:09:03.388Z,101455.66
2022-10-03T00:13:31.101Z,101455.06
2022-10-03T00:17:52.918Z,101455.06
2022-10-03T00:22:12.504Z,101454.31
2022-10-03T00:26:49.211Z,101465.56
2022-10-03T00:31:17.865Z,101463.84
2022-10-03T00:35:59.423Z,101468.78
2022-10-03T00:40:22.993Z,101477.22
2022-10-03T00:44:24.472Z,101472.16
2022-10-03T00:48:54.917Z,101474.72
2022-10-03T00:53:30.704Z,101476.19
2022-10-03T00:57:50.727Z,101486.38
2022-10-03T01:01:52.317Z,101481.06
2022-10-03T01:06:06.050Z,101478.13
2022-10-03T01:10:17.506Z,101491.56
2022-10-03T01:14:31.139Z,101491.16
2022-10-03T01:18:44.924Z,101490.69
2022-10-03T01:22:58.465Z,101500.66
2022-10-03T01:27:13.502Z,101498.09
2022-10-03T01:31:18.513Z,101500.59
2022-10-03T01:35:32.705Z,101504.69
2022-10-03T01:39:37.043Z,101509.53
2022-10-03T01:44:00.641Z,101504.88
2022-10-03T01:48:07.883Z,101519.75
2022-10-03T01:52:30.965Z,101523.47
2022-10-03T01:56:52.175Z,101524.19
2022-10-03T02:01:07.264Z,101519.66
2022-10-03T02:05:36.526Z,101526.75
2022-10-03T02:09:50.012Z,101534.31
2022-10-03T02:13:58.823Z,101530.06
2022-10-03T02:18:24.059Z,101537.03
2022-10-03T02:22:30.246Z,101528.22
2022-10-03T02:26:31.703Z,101531.56
2022-10-03T02:31:07.648Z,101534.84
2022-10-03T02:35:37.212Z,101526.47
2022-10-03T02:40:05.364Z,101526.47
2022-10-03T02:44:25.625Z,101523.75
2022-10-03T02:49:14.542Z,101526.16
2022-10-03T02:53:41.902Z,101520.72
2022-10-03T02:58:06.294Z,101517.19
2022-10-03T03:02:29.922Z,101524.81
2022-10-03T03:06:52.906Z,101530.56
2022-10-03T03:11:29.903Z,101533.69
2022-10-03T03:16:04.456Z,101534.50
2022-10-03T03:20:24.666Z,101540.44
2022-10-03T03:24:53.793Z,101548.75
2022-10-03T03:29:40.353Z,101562.03
2022-10-03T03:33:58.246Z,101555.97
2022-10-03T03:38:12.653Z,101562.78
2022-10-03T03:42:23.717Z,101559.25
2022-10-03T03:47:04.057Z,101555.38
2022-10-03T03:51:19.814Z,101555.91
2022-10-03T03:55:40.875Z,101558.22
2022-10-03T03:59:57.521Z,101553.66
2022-10-03T04:04:05.023Z,101561.19
2022-10-03T04:08:37.513Z,101566.13
2022-10-03T04:13:01.724Z,101577.72
2022-10-03T04:17:49.567Z,101578.34
2022-10-03T04:22:29.631Z,101587.00
2022-10-03T04:27:22.497Z,101587.66
2022-10-03T04:31:44.364Z,101592.28
2022-10-03T04:36:05.514Z,101593.41
2022-10-03T04:40:11.736Z,101597.03
2022-10-03T04:44:35.157Z,101595.44
2022-10-03T04:48:48.202Z,101600.50
2022-10-03T04:53:19.427Z,101596.94
2022-10-03T04:57:51.630Z,101588.03
2022-10-03T05:02:02.303Z,101590.84
2022-10-03T05:06:30.565Z,101594.13
2022-10-03T05:10:55.657Z,101593.16
2022-10-03T05:15:02.921Z,101592.63
2022-10-03T05:19:28.792Z,101608.09
2022-10-03T05:23:44.968Z,101611.19
2022-10-03T05:28:26.810Z,101619.44
2022-10-03T05:32:41.161Z,101625.28
2022-10-03T05:37:25.565Z,101636.53
2022-10-03T05:41:35.508Z,101631.34
2022-10-03T05:46:01.100Z,101638.19
2022-10-03T05:50:15.299Z,101649.31
2022-10-03T05:54:59.068Z,101652.84
2022-10-03T05:59:22.638Z,101646.69
2022-10-03T06:03:30.602Z,101656.97
2022-10-03T06:08:10.375Z,101663.78
2022-10-03T06:12:33.066Z,101672.94
2022-10-03T06:17:04.401Z,101682.88
2022-10-03T06:21:28.796Z,101693.41
2022-10-03T06:26:00.910Z,101704.06
2022-10-03T06:30:17.698Z,101700.31
2022-10-03T06:34:31.500Z,101701.47
2022-10-03T06:39:10.699Z,101706.78
2022-10-03T06:43:38.140Z,101710.13
2022-10-03T06:47:53.742Z,101704.44
2022-10-03T06:52:08.323Z,101695.75
2022-10-03T06:56:41.129Z,101700.53
2022-10-03T07:01:13.075Z,101706.09
2022-10-03T07:05:14.566Z,101698.75
2022-10-03T07:10:03.174Z,101696.53
2022-10-03T07:14:16.030Z,101694.34
2022-10-03T07:18:26.455Z,101687.28
2022-10-03T07:22:59.227Z,101697.16
2022-10-03T07:27:13.069Z,101692.44
2022-10-03T07:32:02.318Z,101707.63
2022-10-03T07:36:44.615Z,101708.88
2022-10-03T07:41:04.203Z,101721.41
2022-10-03T07:45:30.191Z,101723.75
2022-10-03T07:50:01.003Z,101735.28
2022-10-03T07:54:28.803Z,101732.44
2022-10-03T07:58:58.721Z,101721.78
2022-10-03T08:03:15.507Z,101739.09
2022-10-03T08:07:26.573Z,101737.97
2022-10-03T08:11:51.753Z,101728.22
2022-10-03T08:16:20.498Z,101726.13
2022-10-03T08:20:23.165Z,101724.97
2022-10-03T08:24:47.207Z,101727.28
2022-10-03T08:29:08.629Z,101731.19
2022-10-03T08:33:25.349Z,101735.91
2022-10-03T08:38:03.969Z,101732.78
2022-10-03T08:42:22.772Z,101721.28
2022-10-03T08:46:43.264Z,101720.53
2022-10-03T08:51:02.315Z,101725.41
2022-10-03T08:55:16.005Z,101722.88
2022-10-03T08:59:37.584Z,101717.78
2022-10-03T09:04:09.819Z,101719.38
2022-10-03T09:08:20.336Z,101720.91
2022-10-03T09:12:42.720Z,101710.97
2022-10-03T09:17:00.012Z,101719.81
2022-10-03T09:21:26.440Z,101721.38
2022-10-03T09:25:56.038Z,101713.78
2022-10-03T09:30:10.953Z,101716.28
2022-10-03T09:34:55.491Z,101725.22
2022-10-03T09:39:15.991Z,101721.31
2022-10-03T09:43:38.955Z,101725.41
2022-10-03T09:48:18.202Z,101717.03
2022-10-03T09:52:32.962Z,101714.91
2022-10-03T09:57:01.758Z,101715.97
2022-10-03T10:01:30.361Z,101714.41
2022-10-03T10:05:58.890Z,101712.56
2022-10-03T10:10:10.640Z,101708.19
2022-10-03T10:14:30.189Z,101717.03
2022-10-03T10:19:04.711Z,101718.66
2022-10-03T10:23:27.692Z,101715.50
2022-10-03T10:27:42.166Z,101711.56
2022-10-03T10:32:19.004Z,101699.06
2022-10-03T10:36:41.901Z,101692.13
2022-10-03T10:41:08.989Z,101692.81
2022-10-03T10:45:29.878Z,101691.22
2022-10-03T10:49:53.479Z,101684.69
2022-10-03T10:54:13.346Z,101683.31
2022-10-03T10:59:19.820Z,101681.16
2022-10-03T11:03:43.158Z,101675.38
2022-10-03T11:08:03.326Z,101683.47
2022-10-03T11:12:38.104Z,101682.28
2022-10-03T11:17:25.020Z,101679.69
2022-10-03T11:22:05.573Z,101677.59
2022-10-03T11:26:37.713Z,101673.44
2022-10-03T11:31:18.336Z,101677.88
2022-10-03T11:35:57.220Z,101667.78
2022-10-03T11:40:16.387Z,101669.91
2022-10-03T11:44:31.152Z,101669.53
2022-10-03T11:48:40.636Z,101661.16
2022-10-03T11:53:15.156Z,101644.78
2022-10-03T11:57:41.359Z,101644.31
2022-10-03T12:01:58.466Z,101632.72
2022-10-03T12:06:27.405Z,101630.41
2022-10-03T12:10:43.708Z,101630.41
2022-10-03T12:14:49.969Z,101623.34
2022-10-03T12:18:56.986Z,101620.81
2022-10-03T12:23:16.154Z,101618.00
2022-10-03T12:27:30.291Z,101624.97
2022-10-03T12:31:42.495Z,101613.63
2022-10-03T12:36:07.677Z,101614.47
2022-10-03T12:40:16.113Z,101609.09
2022-10-03T12:44:47.366Z,101603.69
2022-10-03T12:49:03.353Z,101587.44
2022-10-03T12:53:17.478Z,101585.88
2022-10-03T12:57:49.624Z,101587.75
2022-10-03T13:01:56.848Z,101589.06
2022-10-03T13:06:13.346Z,101587.91
2022-10-03T13:10:28.785Z,101585.13
2022-10-03T13:14:33.091Z,101591.00
2022-10-03T13:18:49.331Z,101584.72
2022-10-03T13:23:11.164Z,101587.19
2022-10-03T13:27:38.005Z,101581.25
2022-10-03T13:31:55.411Z,101570.16
2022-10-03T13:36:05.382Z,101565.97
2022-10-03T13:40:12.412Z,101564.31
2022-10-03T13:44:22.440Z,101561.66
2022-10-03T13:48:27.517Z,101566.16
2022-10-03T13:52:41.581Z,101562.56
2022-10-03T13:57:05.549Z,101565.22
2022-10-03T14:01:14.697Z,101563.28
2022-10-03T14:05:53.039Z,101565.91
2022-10-03T14:10:10.491Z,101562.47
2022-10-03T14:14:34.382Z,101553.16
2022-10-03T14:18:53.889Z,101551.25
2022-10-03T14:23:28.154Z,101556.19
2022-10-03T14:27:43.764Z,101555.22
2022-10-03T14:32:42.487Z,101546.34
2022-10-03T14:36:49.443Z,101543.13
2022-10-03T14:41:01.690Z,101539.81
2022-10-03T14:45:15.456Z,101539.38
2022-10-03T14:49:56.468Z,101546.56
2022-10-03T14:54:05.187Z,101532.28
2022-10-03T14:58:17.482Z,101544.09
2022-10-03T15:02:45.039Z,101549.19
2022-10-03T15:06:46.504Z,101534.00
2022-10-03T15:10:50.739Z,101532.50
2022-10-03T15:15:02.269Z,101520.41
2022-10-03T15:19:09.913Z,101524.72
2022-10-03T15:23:37.285Z,101533.47
2022-10-03T15:27:41.815Z,101522.09
2022-10-03T15:31:48.468Z,101528.06
2022-10-03T15:35:55.350Z,101525.34
2022-10-03T15:40:01.348Z,101522.88
2022-10-03T15:44:10.402Z,101515.50
2022-10-03T15:48:16.874Z,101524.19
2022-10-03T15:52:20.463Z,101519.47
2022-10-03T15:56:55.100Z,101510.69
2022-10-03T16:01:11.837Z,101514.44
2022-10-03T16:05:19.617Z,101521.63
2022-10-03T16:10:04.110Z,101518.91
2022-10-03T16:14:15.320Z,101515.63
2022-10-03T16:18:19.757Z,101519.28
2022-10-03T16:22:30.950Z,101521.91
2022-10-03T16:26:52.303Z,101509.97
2022-10-03T16:31:04.912Z,101511.72
2022-10-03T16:35:25.411Z,101495.13
2022-10-03T16:39:32.602Z,101503.91
2022-10-03T16:43:34.707Z,101514.75
2022-10-03T16:47:36.692Z,101510.78
2022-10-03T16:51:43.681Z,101511.28
2022-10-03T16:55:59.819Z,101524.31
2022-10-03T17:00:07.824Z,101521.91
2022-10-03T17:04:36.246Z,101524.97
2022-10-03T17:08:47.242Z,101516.63
2022-10-03T17:12:53.036Z,101517.09
2022-10-03T17:17:06.648Z,101515.94
2022-10-03T17:21:17.176Z,101516.56
2022-10-03T17:25:18.632Z,101508.63
2022-10-03T17:29:30.745Z,101508.50
2022-10-03T17:33:50.768Z,101502.31
2022-10-03T17:38:55.391Z,101495.19
2022-10-03T17:43:05.728Z,101495.75
2022-10-03T17:47:34.611Z,101498.19
2022-10-03T17:51:40.360Z,101487.63
2022-10-03T17:55:44.849Z,101497.72
2022-10-03T18:00:15.536Z,101497.34
2022-10-03T18:04:39.345Z,101499.50
2022-10-03T18:08:41.676Z,101502.66
2022-10-03T18:12:43.685Z,101497.94
2022-10-03T18:16:47.355Z,101495.72
2022-10-03T18:20:58.175Z,101498.97
2022-10-03T18:25:25.928Z,101502.94
2022-10-03T18:29:52.266Z,101502.72
2022-10-03T18:34:08.229Z,101493.06
2022-10-03T18:38:17.901Z,101495.47
2022-10-03T18:42:26.578Z,101497.00
2022-10-03T18:46:31.037Z,101503.56
2022-10-03T18:50:53.864Z,101504.22
2022-10-03T18:55:00.223Z,101503.03
2022-10-03T18:59:10.406Z,101499.47
2022-10-03T19:03:15.505Z,101492.38
2022-10-03T19:07:22.357Z,101491.19
2022-10-03T19:11:30.060Z,101491.06
2022-10-03T19:15:50.282Z,101495.16
2022-10-03T19:19:59.370Z,101501.78
2022-10-03T19:24:05.526Z,101486.97
2022-10-03T19:28:25.886Z,101491.09
2022-10-03T19:32:47.310Z,101499.38
2022-10-03T19:36:53.374Z,101497.25
2022-10-03T19:41:00.212Z,101495.00
2022-10-03T19:45:01.943Z,101500.78
2022-10-03T19:49:26.149Z,101499.00
2022-10-03T19:53:27.806Z,101508.22
2022-10-03T19:57:51.844Z,101503.03
2022-10-03T20:01:53.576Z,101495.06
2022-10-03T20:05:57.831Z,101493.22
2022-10-03T20:10:13.569Z,101482.72
2022-10-03T20:14:29.302Z,101481.72
2022-10-03T20:18:35.312Z,101479.81
2022-10-03T20:22:37.507Z,101474.56
2022-10-03T20:26:55.218Z,101483.00
2022-10-03T20:30:56.939Z,101481.13
2022-10-03T20:34:59.745Z,101489.59
2022-10-03T20:39:23.334Z,101478.75
2022-10-03T20:43:41.551Z,101485.28
2022-10-03T20:47:46.683Z,101478.09
2022-10-03T20:51:54.361Z,101472.97
2022-10-03T20:55:57.894Z,101461.59
2022-10-03T21:00:11.624Z,101483.03
2022-10-03T21:04:25.256Z,101465.44
2022-10-03T21:08:30.818Z,101460.13
2022-10-03T21:12:40.781Z,101475.53
2022-10-03T21:17:03.061Z,101474.47
2022-10-03T21:21:34.167Z,101480.81
2022-10-03T21:25:37.798Z,101478.63
2022-10-03T21:29:52.486Z,101477.41
2022-10-03T21:34:28.873Z,101460.03
2022-10-03T21:38:32.913Z,101464.28
2022-10-03T21:43:11.976Z,101464.28
2022-10-03T21:47:52.672Z,101463.06
2022-10-03T21:52:09.412Z,101457.84
2022-10-03T21:56:25.113Z,101451.69
2022-10-03T22:01:05.239Z,101444.63
2022-10-03T22:05:16.982Z,101440.28
2022-10-03T22:09:18.590Z,101437.69
2022-10-03T22:13:23.430Z,101443.47
2022-10-03T22:17:54.649Z,101450.06
2022-10-03T22:22:11.518Z,101442.00
2022-10-03T22:26:59.815Z,101442.50
2022-10-03T22:31:25.923Z,101439.66
2022-10-03T22:35:33.205Z,101437.75
2022-10-03T22:39:36.385Z,101430.72
2022-10-03T22:43:38.956Z,101420.31
2022-10-03T22:47:42.552Z,101411.72
2022-10-03T22:51:45.141Z,101419.34
2022-10-03T22:55:50.998Z,101412.59
2022-10-03T22:59:57.573Z,101405.25
2022-10-03T23:03:59.582Z,101411.19
2022-10-03T23:08:22.723Z,101407.81
2022-10-03T23:12:27.992Z,101404.22
2022-10-03T23:16:49.106Z,101410.19
2022-10-03T23:20:56.524Z,101403.13
2022-10-03T23:25:02.282Z,101400.50
2022-10-03T23:29:12.648Z,101407.13
2022-10-03T23:33:38.243Z,101392.84
2022-10-03T23:37:42.523Z,101397.13
2022-10-03T23:41:55.227Z,101382.66
2022-10-03T23:46:13.451Z,101386.03
2022-10-03T23:50:47.112Z,101371.34
2022-10-03T23:54:49.228Z,101374.78
2022-10-03T23:59:03.104Z,101377.34
